Aérodrome :
LOGIN :

S'inscrire | Disclaimer

   EN    FR    IT 

 










Légende :    VFR   VFR Marginal   IFR   IFR Intensif   IFR Très Intensif
Visi : 
Plafond : 
>= 8 km
>= 3000ft
5 à 8 km
1000 à 3000 ft
1500m à 5 km
500 à 1000 ft
800 à 1500m
200 à 500 ft
< 800m
< 200 ft
Symboles :   Orages  Brouillard  Fortes neiges  Fortes précipitations  Vent > 20 kt
SIGMETs :   Divers  Orages  Givrage  Turbulence  Onde Orograph.  Cendres Volcan.







- Altitude de l'aérodrome : 1234 ft
- Code IATA : LUX


ELLX - Luxembourg Findel

DERNIER METAR :
  • 101920Z 32008KT 290V350 9999 FEW017 BKN030 03/00 Q1024 NOSIG

METARs EXPIRÉS :
  • 101850Z 31008KT 270V330 9999 FEW045 03/00 Q1024 NOSIG
  • 101820Z 29009KT 270V330 CAVOK 04/01 Q1023 NOSIG
  • 101750Z 28011KT 9999 FEW030 04/01 Q1023 NOSIG
  • 101720Z 29012KT 260V320 9999 FEW030 04/01 Q1023 NOSIG
  • 101650Z 29011KT 250V320 9999 FEW016 BKN028 04/02 Q1023 NOSIG

TAF TAF ELLX
Valide du 10 à 18h jusqu'au 12 à 00h UTC


101700Z 1018/1124 30010KT 9999 SCT020 BKN030
TEMPO 1018/1102 30010G22KT
TEMPO 1102/1109 4500 BR SCT002 BKN004
BECMG 1110/1112 SCT025
ATIS : +352 4798 27300
Météo : +352 4798 27010 / 27050
Pas de NOTAMs connus pour ce terrain.



MET'MAP, la Météo Aéronautique d'un coup d'oeil ! - Copyright ORBIFLY Décembre 2007 - Disclaimer

ORBIFLY MET'MAP TEAM :

Programmation & Développement : Alexandra Zaïnal
Conception & Développement : Baudouin d'Aumeries
Co-Programmation & Développement : Marc-Olivier Méhu
Soutien technique & logistique : Manuel Goepfert

Contact : metmap@orbifly.com




SOURCES & CREDITS :

   NOAA